sensor_id;sensor_type;location;lat;lon;timestamp;pressure;altitude;pressure_sealevel;temperature;humidity
14120;BME280;7138;49.246;9.100;2024-02-26T00:00:13;97041.22;;;8.91;59.14
14120;BME280;7138;49.246;9.100;2024-02-26T00:02:39;97047.47;;;8.91;59.19
14120;BME280;7138;49.246;9.100;2024-02-26T00:05:07;97048.59;;;8.90;59.30
14120;BME280;7138;49.246;9.100;2024-02-26T00:07:33;97042.84;;;8.92;59.16
14120;BME280;7138;49.246;9.100;2024-02-26T00:09:59;97045.84;;;8.95;59.14
14120;BME280;7138;49.246;9.100;2024-02-26T00:12:26;97046.38;;;8.97;59.10
14120;BME280;7138;49.246;9.100;2024-02-26T00:14:52;97036.84;;;8.95;58.86
14120;BME280;7138;49.246;9.100;2024-02-26T00:17:19;97052.41;;;8.94;59.05
14120;BME280;7138;49.246;9.100;2024-02-26T00:19:45;97047.19;;;8.93;59.12
14120;BME280;7138;49.246;9.100;2024-02-26T00:22:11;97027.06;;;8.84;59.18
14120;BME280;7138;49.246;9.100;2024-02-26T00:24:36;97045.56;;;8.92;59.19
14120;BME280;7138;49.246;9.100;2024-02-26T00:27:02;97047.19;;;8.93;59.16
14120;BME280;7138;49.246;9.100;2024-02-26T00:29:30;97043.41;;;8.94;58.69
14120;BME280;7138;49.246;9.100;2024-02-26T00:31:56;97051.59;;;8.94;58.71
14120;BME280;7138;49.246;9.100;2024-02-26T00:34:21;97051.84;;;8.92;58.70
14120;BME280;7138;49.246;9.100;2024-02-26T00:36:47;97048.31;;;8.92;59.07
14120;BME280;7138;49.246;9.100;2024-02-26T00:39:13;97042.84;;;8.92;59.24
14120;BME280;7138;49.246;9.100;2024-02-26T00:41:40;97050.50;;;8.95;59.04
14120;BME280;7138;49.246;9.100;2024-02-26T00:44:05;97041.19;;;8.96;59.34
14120;BME280;7138;49.246;9.100;2024-02-26T00:46:33;97050.22;;;8.96;58.97
14120;BME280;7138;49.246;9.100;2024-02-26T00:48:59;97043.13;;;8.95;58.90
14120;BME280;7138;49.246;9.100;2024-02-26T00:51:25;97042.59;;;8.93;59.55
14120;BME280;7138;49.246;9.100;2024-02-26T00:53:51;97045.56;;;8.92;58.98
14120;BME280;7138;49.246;9.100;2024-02-26T00:56:17;97042.84;;;8.92;59.38
14120;BME280;7138;49.246;9.100;2024-02-26T00:58:43;97043.13;;;8.90;58.90
14120;BME280;7138;49.246;9.100;2024-02-26T01:01:09;97038.81;;;8.84;59.53
14120;BME280;7138;49.246;9.100;2024-02-26T01:03:36;97037.44;;;8.82;59.39
14120;BME280;7138;49.246;9.100;2024-02-26T01:06:02;97042.06;;;8.81;59.07
14120;BME280;7138;49.246;9.100;2024-02-26T01:08:28;97038.00;;;8.79;59.54
14120;BME280;7138;49.246;9.100;2024-02-26T01:10:54;97053.31;;;8.75;59.43
14120;BME280;7138;49.246;9.100;2024-02-26T01:13:20;97050.03;;;8.73;59.60
14120;BME280;7138;49.246;9.100;2024-02-26T01:15:46;97054.41;;;8.74;60.07
14120;BME280;7138;49.246;9.100;2024-02-26T01:18:12;97045.66;;;8.72;59.56
14120;BME280;7138;49.246;9.100;2024-02-26T01:20:39;97041.06;;;8.67;59.77
14120;BME280;7138;49.246;9.100;2024-02-26T01:23:04;97046.75;;;8.70;60.01
14120;BME280;7138;49.246;9.100;2024-02-26T01:25:30;97051.13;;;8.72;60.04
14120;BME280;7138;49.246;9.100;2024-02-26T01:27:56;97040.47;;;8.70;59.84
14120;BME280;7138;49.246;9.100;2024-02-26T01:30:22;97054.13;;;8.70;60.13
14120;BME280;7138;49.246;9.100;2024-02-26T01:32:48;97065.59;;;8.72;59.95
14120;BME280;7138;49.246;9.100;2024-02-26T01:35:14;97044.84;;;8.71;59.93
14120;BME280;7138;49.246;9.100;2024-02-26T01:37:42;97051.41;;;8.70;60.14
14120;BME280;7138;49.246;9.100;2024-02-26T01:40:09;97046.75;;;8.70;59.88
14120;BME280;7138;49.246;9.100;2024-02-26T01:42:38;97062.88;;;8.72;59.95
14120;BME280;7138;49.246;9.100;2024-02-26T01:45:05;97062.88;;;8.72;59.92
14120;BME280;7138;49.246;9.100;2024-02-26T01:47:32;97078.41;;;8.77;59.77
14120;BME280;7138;49.246;9.100;2024-02-26T01:49:59;97059.59;;;8.75;59.77
14120;BME280;7138;49.246;9.100;2024-02-26T01:52:25;97069.13;;;8.78;60.27
14120;BME280;7138;49.246;9.100;2024-02-26T01:54:52;97061.75;;;8.78;59.97
14120;BME280;7138;49.246;9.100;2024-02-26T01:57:18;97062.28;;;8.80;60.34
14120;BME280;7138;49.246;9.100;2024-02-26T01:59:44;97083.00;;;8.81;60.12
14120;BME280;7138;49.246;9.100;2024-02-26T02:02:11;97081.66;;;8.84;60.15
14120;BME280;7138;49.246;9.100;2024-02-26T02:04:38;97072.09;;;8.86;60.17
14120;BME280;7138;49.246;9.100;2024-02-26T02:07:05;97081.38;;;8.85;59.95
14120;BME280;7138;49.246;9.100;2024-02-26T02:09:31;97079.47;;;8.86;60.20
14120;BME280;7138;49.246;9.100;2024-02-26T02:11:59;97080.28;;;8.86;60.39
14120;BME280;7138;49.246;9.100;2024-02-26T02:14:25;97089.28;;;8.87;59.95
14120;BME280;7138;49.246;9.100;2024-02-26T02:16:51;97086.84;;;8.85;60.15
14120;BME280;7138;49.246;9.100;2024-02-26T02:19:17;97073.19;;;8.85;59.97
14120;BME280;7138;49.246;9.100;2024-02-26T02:21:44;97077.81;;;8.85;60.18
14120;BME280;7138;49.246;9.100;2024-02-26T02:24:10;97068.81;;;8.84;60.12
14120;BME280;7138;49.246;9.100;2024-02-26T02:26:36;97059.09;;;8.63;61.76
14120;BME280;7138;49.246;9.100;2024-02-26T02:29:02;97053.91;;;8.56;62.24
14120;BME280;7138;49.246;9.100;2024-02-26T02:31:28;97047.66;;;8.46;63.02
14120;BME280;7138;49.246;9.100;2024-02-26T02:33:54;97044.16;;;8.35;62.89
14120;BME280;7138;49.246;9.100;2024-02-26T02:36:20;97045.50;;;8.32;62.74
14120;BME280;7138;49.246;9.100;2024-02-26T02:38:51;97038.94;;;8.28;63.57
14120;BME280;7138;49.246;9.100;2024-02-26T02:41:17;97040.84;;;8.28;63.64
14120;BME280;7138;49.246;9.100;2024-02-26T02:43:43;97049.84;;;8.28;63.75
14120;BME280;7138;49.246;9.100;2024-02-26T02:46:09;97037.59;;;8.26;63.87
14120;BME280;7138;49.246;9.100;2024-02-26T02:48:37;97022.88;;;8.27;63.58
14120;BME280;7138;49.246;9.100;2024-02-26T02:51:04;97043.59;;;8.23;64.58
14120;BME280;7138;49.246;9.100;2024-02-26T02:53:29;97058.88;;;8.19;63.33
14120;BME280;7138;49.246;9.100;2024-02-26T02:55:57;97072.50;;;8.19;63.92
14120;BME280;7138;49.246;9.100;2024-02-26T02:58:22;97086.41;;;8.22;63.78
14120;BME280;7138;49.246;9.100;2024-02-26T03:00:48;97082.03;;;8.26;63.40
14120;BME280;7138;49.246;9.100;2024-02-26T03:03:14;97087.50;;;8.31;63.43
14120;BME280;7138;49.246;9.100;2024-02-26T03:05:40;97073.28;;;8.29;63.71
14120;BME280;7138;49.246;9.100;2024-02-26T03:08:06;97055.31;;;8.33;62.62
14120;BME280;7138;49.246;9.100;2024-02-26T03:10:32;97059.13;;;8.27;62.84
14120;BME280;7138;49.246;9.100;2024-02-26T03:12:59;97073.06;;;8.36;63.27
14120;BME280;7138;49.246;9.100;2024-02-26T03:15:25;97072.47;;;8.34;62.65
14120;BME280;7138;49.246;9.100;2024-02-26T03:17:50;97070.56;;;8.39;62.63
14120;BME280;7138;49.246;9.100;2024-02-26T03:20:16;97072.25;;;8.40;62.35
14120;BME280;7138;49.246;9.100;2024-02-26T03:22:44;97080.69;;;8.44;62.60
14120;BME280;7138;49.246;9.100;2024-02-26T03:25:11;97087.19;;;8.48;62.72
14120;BME280;7138;49.246;9.100;2024-02-26T03:27:37;97095.38;;;8.53;63.08
14120;BME280;7138;49.246;9.100;2024-02-26T03:30:06;97105.47;;;8.58;63.23
14120;BME280;7138;49.246;9.100;2024-02-26T03:32:31;97105.75;;;8.61;62.60
14120;BME280;7138;49.246;9.100;2024-02-26T03:34:57;97103.25;;;8.65;62.82
14120;BME280;7138;49.246;9.100;2024-02-26T03:37:23;97108.16;;;8.68;62.85
14120;BME280;7138;49.246;9.100;2024-02-26T03:39:49;97105.72;;;8.66;63.18
14120;BME280;7138;49.246;9.100;2024-02-26T03:42:15;97103.28;;;8.55;62.30
14120;BME280;7138;49.246;9.100;2024-02-26T03:44:42;97104.66;;;8.52;63.32
14120;BME280;7138;49.246;9.100;2024-02-26T03:47:09;97104.91;;;8.56;64.09
14120;BME280;7138;49.246;9.100;2024-02-26T03:49:35;97110.38;;;8.56;63.40
14120;BME280;7138;49.246;9.100;2024-02-26T03:52:01;97103.53;;;8.58;63.76
14120;BME280;7138;49.246;9.100;2024-02-26T03:54:27;97111.72;;;8.58;63.56
14120;BME280;7138;49.246;9.100;2024-02-26T03:56:53;97113.34;;;8.59;64.72
14120;BME280;7138;49.246;9.100;2024-02-26T03:59:18;97102.72;;;8.58;65.00
14120;BME280;7138;49.246;9.100;2024-02-26T04:01:46;97098.38;;;8.57;65.11
14120;BME280;7138;49.246;9.100;2024-02-26T04:04:14;97101.09;;;8.57;64.80
14120;BME280;7138;49.246;9.100;2024-02-26T04:06:39;97092.09;;;8.56;65.01
14120;BME280;7138;49.246;9.100;2024-02-26T04:09:09;97096.19;;;8.54;65.48
14120;BME280;7138;49.246;9.100;2024-02-26T04:11:36;97094.56;;;8.48;66.32
14120;BME280;7138;49.246;9.100;2024-02-26T04:14:01;97091.34;;;8.40;66.47
14120;BME280;7138;49.246;9.100;2024-02-26T04:16:28;97091.03;;;8.37;66.57
14120;BME280;7138;49.246;9.100;2024-02-26T04:18:54;97090.75;;;8.33;66.98
14120;BME280;7138;49.246;9.100;2024-02-26T04:21:21;97090.50;;;8.30;66.93
14120;BME280;7138;49.246;9.100;2024-02-26T04:23:47;97086.13;;;8.24;66.79
14120;BME280;7138;49.246;9.100;2024-02-26T04:26:14;97088.84;;;8.19;67.32
14120;BME280;7138;49.246;9.100;2024-02-26T04:28:41;97083.97;;;8.10;67.29
14120;BME280;7138;49.246;9.100;2024-02-26T04:31:07;97079.59;;;8.04;67.49
14120;BME280;7138;49.246;9.100;2024-02-26T04:33:34;97083.97;;;7.95;68.11
14120;BME280;7138;49.246;9.100;2024-02-26T04:36:00;97076.38;;;7.87;69.12
14120;BME280;7138;49.246;9.100;2024-02-26T04:38:27;97077.19;;;7.77;69.22
14120;BME280;7138;49.246;9.100;2024-02-26T04:40:53;97085.59;;;7.76;68.78
14120;BME280;7138;49.246;9.100;2024-02-26T04:43:19;97095.94;;;7.74;69.68
14120;BME280;7138;49.246;9.100;2024-02-26T04:45:45;97091.34;;;7.69;69.55
14120;BME280;7138;49.246;9.100;2024-02-26T04:48:11;97093.78;;;7.66;69.35
14120;BME280;7138;49.246;9.100;2024-02-26T04:50:37;97090.78;;;7.67;68.93
14120;BME280;7138;49.246;9.100;2024-02-26T04:53:03;97082.59;;;7.62;69.70
14120;BME280;7138;49.246;9.100;2024-02-26T04:55:30;97084.78;;;7.60;69.70
14120;BME280;7138;49.246;9.100;2024-02-26T04:57:56;97083.69;;;7.56;70.01
14120;BME280;7138;49.246;9.100;2024-02-26T05:00:22;97090.75;;;7.52;70.10
14120;BME280;7138;49.246;9.100;2024-02-26T05:02:47;97092.66;;;7.46;70.68
14120;BME280;7138;49.246;9.100;2024-02-26T05:05:14;97086.09;;;7.42;70.63
14120;BME280;7138;49.246;9.100;2024-02-26T05:07:40;97077.66;;;7.44;70.13
14120;BME280;7138;49.246;9.100;2024-02-26T05:10:07;97087.75;;;7.43;70.59
14120;BME280;7138;49.246;9.100;2024-02-26T05:12:35;97071.69;;;7.37;70.70
14120;BME280;7138;49.246;9.100;2024-02-26T05:15:01;97077.13;;;7.37;70.58
14120;BME280;7138;49.246;9.100;2024-02-26T05:17:27;97072.47;;;7.32;71.08
14120;BME280;7138;49.246;9.100;2024-02-26T05:19:53;97066.22;;;7.27;72.30
14120;BME280;7138;49.246;9.100;2024-02-26T05:22:19;97063.78;;;7.25;71.34
14120;BME280;7138;49.246;9.100;2024-02-26T05:24:45;97063.47;;;7.21;71.96
14120;BME280;7138;49.246;9.100;2024-02-26T05:27:11;97056.13;;;7.22;72.70
14120;BME280;7138;49.246;9.100;2024-02-26T05:29:39;97054.75;;;7.19;73.20
14120;BME280;7138;49.246;9.100;2024-02-26T05:32:06;97064.28;;;7.22;72.81
14120;BME280;7138;49.246;9.100;2024-02-26T05:34:31;97064.03;;;7.29;72.81
14120;BME280;7138;49.246;9.100;2024-02-26T05:36:58;97065.94;;;7.28;72.39
14120;BME280;7138;49.246;9.100;2024-02-26T05:39:24;97068.66;;;7.28;72.79
14120;BME280;7138;49.246;9.100;2024-02-26T05:41:50;97071.66;;;7.32;72.10
14120;BME280;7138;49.246;9.100;2024-02-26T05:44:16;97079.56;;;7.38;72.13
14120;BME280;7138;49.246;9.100;2024-02-26T05:46:43;97067.84;;;7.28;71.82
14120;BME280;7138;49.246;9.100;2024-02-26T05:49:09;97084.22;;;7.38;71.02
14120;BME280;7138;49.246;9.100;2024-02-26T05:51:35;97093.47;;;7.42;71.08
14120;BME280;7138;49.246;9.100;2024-02-26T05:54:00;97092.94;;;7.45;71.33
14120;BME280;7138;49.246;9.100;2024-02-26T05:56:26;97091.28;;;7.44;72.05
14120;BME280;7138;49.246;9.100;2024-02-26T05:58:52;97089.94;;;7.46;71.64
14120;BME280;7138;49.246;9.100;2024-02-26T06:01:20;97095.13;;;7.48;72.38
14120;BME280;7138;49.246;9.100;2024-02-26T06:03:47;97090.47;;;7.43;73.22
14120;BME280;7138;49.246;9.100;2024-02-26T06:06:13;97097.53;;;7.39;73.47
14120;BME280;7138;49.246;9.100;2024-02-26T06:08:40;97098.59;;;7.33;74.04
14120;BME280;7138;49.246;9.100;2024-02-26T06:11:06;97092.06;;;7.29;73.57
14120;BME280;7138;49.246;9.100;2024-02-26T06:13:32;97104.31;;;7.27;73.59
14120;BME280;7138;49.246;9.100;2024-02-26T06:15:58;97108.09;;;7.20;74.06
14120;BME280;7138;49.246;9.100;2024-02-26T06:18:24;97105.38;;;7.20;74.18
14120;BME280;7138;49.246;9.100;2024-02-26T06:20:51;97111.41;;;7.28;72.88
14120;BME280;7138;49.246;9.100;2024-02-26T06:23:17;97116.84;;;7.33;73.39
14120;BME280;7138;49.246;9.100;2024-02-26T06:25:43;97128.84;;;7.37;73.38
14120;BME280;7138;49.246;9.100;2024-02-26T06:28:09;97129.13;;;7.40;73.32
14120;BME280;7138;49.246;9.100;2024-02-26T06:30:35;97129.41;;;7.44;73.43
14120;BME280;7138;49.246;9.100;2024-02-26T06:33:01;97146.84;;;7.48;73.49
14120;BME280;7138;49.246;9.100;2024-02-26T06:35:27;97154.22;;;7.52;73.17
14120;BME280;7138;49.246;9.100;2024-02-26T06:37:54;97152.88;;;7.60;73.15
14120;BME280;7138;49.246;9.100;2024-02-26T06:40:20;97163.22;;;7.63;72.29
14120;BME280;7138;49.246;9.100;2024-02-26T06:42:46;97167.84;;;7.63;72.69
14120;BME280;7138;49.246;9.100;2024-02-26T06:45:12;97177.69;;;7.69;72.40
14120;BME280;7138;49.246;9.100;2024-02-26T06:47:38;97174.41;;;7.72;72.19
14120;BME280;7138;49.246;9.100;2024-02-26T06:50:05;97180.69;;;7.77;72.24
14120;BME280;7138;49.246;9.100;2024-02-26T06:52:30;97189.16;;;7.81;73.04
14120;BME280;7138;49.246;9.100;2024-02-26T06:54:58;97188.59;;;7.84;72.70
14120;BME280;7138;49.246;9.100;2024-02-26T06:57:24;97174.16;;;7.83;72.30
14120;BME280;7138;49.246;9.100;2024-02-26T06:59:49;97174.69;;;7.86;71.74
14120;BME280;7138;49.246;9.100;2024-02-26T07:02:15;97171.16;;;7.85;71.51
14120;BME280;7138;49.246;9.100;2024-02-26T07:04:44;97180.16;;;7.86;71.95
14120;BME280;7138;49.246;9.100;2024-02-26T07:07:10;97184.50;;;7.87;72.01
14120;BME280;7138;49.246;9.100;2024-02-26T07:09:36;97182.34;;;7.89;71.87
14120;BME280;7138;49.246;9.100;2024-02-26T07:12:04;97189.44;;;7.90;72.42
14120;BME280;7138;49.246;9.100;2024-02-26T07:14:30;97188.88;;;7.93;72.21
14120;BME280;7138;49.246;9.100;2024-02-26T07:16:56;97177.44;;;7.86;72.04
14120;BME280;7138;49.246;9.100;2024-02-26T07:19:22;97194.63;;;7.91;72.47
14120;BME280;7138;49.246;9.100;2024-02-26T07:21:48;97187.25;;;7.92;72.83
14120;BME280;7138;49.246;9.100;2024-02-26T07:24:14;97186.72;;;7.95;72.32
14120;BME280;7138;49.246;9.100;2024-02-26T07:26:40;97194.88;;;7.90;72.52
14120;BME280;7138;49.246;9.100;2024-02-26T07:29:07;97190.25;;;7.90;73.04
14120;BME280;7138;49.246;9.100;2024-02-26T07:31:33;97194.63;;;7.91;73.39
14120;BME280;7138;49.246;9.100;2024-02-26T07:33:58;97193.25;;;7.94;73.37
14120;BME280;7138;49.246;9.100;2024-02-26T07:36:25;97185.63;;;7.91;73.33
14120;BME280;7138;49.246;9.100;2024-02-26T07:38:51;97184.81;;;8.00;73.18
14120;BME280;7138;49.246;9.100;2024-02-26T07:41:19;97191.34;;;7.89;73.59
14120;BME280;7138;49.246;9.100;2024-02-26T07:43:45;97198.41;;;7.85;74.45
14120;BME280;7138;49.246;9.100;2024-02-26T07:46:12;97200.34;;;7.90;73.38
14120;BME280;7138;49.246;9.100;2024-02-26T07:48:38;97204.16;;;7.94;73.48
14120;BME280;7138;49.246;9.100;2024-02-26T07:51:04;97207.13;;;7.97;72.83
14120;BME280;7138;49.246;9.100;2024-02-26T07:53:31;97204.72;;;8.01;73.49
14120;BME280;7138;49.246;9.100;2024-02-26T07:55:57;97206.63;;;8.00;73.36
14120;BME280;7138;49.246;9.100;2024-02-26T07:58:23;97210.97;;;7.96;72.69
14120;BME280;7138;49.246;9.100;2024-02-26T08:00:49;97201.44;;;7.94;73.14
14120;BME280;7138;49.246;9.100;2024-02-26T08:03:17;97206.31;;;7.87;73.06
14120;BME280;7138;49.246;9.100;2024-02-26T08:05:42;97205.22;;;7.77;73.01
14120;BME280;7138;49.246;9.100;2024-02-26T08:08:09;97219.66;;;7.78;72.86
14120;BME280;7138;49.246;9.100;2024-02-26T08:10:35;97220.47;;;7.78;72.90
14120;BME280;7138;49.246;9.100;2024-02-26T08:13:01;97213.94;;;7.84;72.69
14120;BME280;7138;49.246;9.100;2024-02-26T08:15:30;97216.38;;;7.81;73.40
14120;BME280;7138;49.246;9.100;2024-02-26T08:17:56;97221.03;;;7.80;73.48
14120;BME280;7138;49.246;9.100;2024-02-26T08:20:23;97224.56;;;7.81;73.21
14120;BME280;7138;49.246;9.100;2024-02-26T08:22:49;97224.03;;;7.84;73.22
14120;BME280;7138;49.246;9.100;2024-02-26T08:25:15;97227.03;;;7.88;72.90
14120;BME280;7138;49.246;9.100;2024-02-26T08:27:41;97226.22;;;7.87;73.02
14120;BME280;7138;49.246;9.100;2024-02-26T08:30:08;97228.69;;;7.89;73.15
14120;BME280;7138;49.246;9.100;2024-02-26T08:32:34;97239.03;;;7.92;72.68
14120;BME280;7138;49.246;9.100;2024-02-26T08:35:00;97235.22;;;7.93;72.84
14120;BME280;7138;49.246;9.100;2024-02-26T08:37:27;97234.66;;;7.96;72.95
14120;BME280;7138;49.246;9.100;2024-02-26T08:39:53;97246.16;;;7.98;72.99
14120;BME280;7138;49.246;9.100;2024-02-26T08:42:19;97234.66;;;7.91;73.08
14120;BME280;7138;49.246;9.100;2024-02-26T08:44:45;97238.75;;;7.93;72.75
14120;BME280;7138;49.246;9.100;2024-02-26T08:47:11;97234.66;;;7.96;72.33
14120;BME280;7138;49.246;9.100;2024-02-26T08:49:36;97238.50;;;8.05;72.76
14120;BME280;7138;49.246;9.100;2024-02-26T08:52:04;97241.22;;;8.05;72.99
14120;BME280;7138;49.246;9.100;2024-02-26T08:54:32;97239.88;;;8.12;73.20
14120;BME280;7138;49.246;9.100;2024-02-26T08:56:58;97234.44;;;8.23;72.90
14120;BME280;7138;49.246;9.100;2024-02-26T08:59:24;97245.34;;;8.28;72.94
14120;BME280;7138;49.246;9.100;2024-02-26T09:01:50;97246.47;;;8.37;71.97
14120;BME280;7138;49.246;9.100;2024-02-26T09:04:16;97246.50;;;8.42;72.48
14120;BME280;7138;49.246;9.100;2024-02-26T09:06:41;97238.59;;;8.40;72.35
14120;BME280;7138;49.246;9.100;2024-02-26T09:09:07;97252.22;;;8.61;71.76
14120;BME280;7138;49.246;9.100;2024-02-26T09:11:34;97245.69;;;8.62;71.41
14120;BME280;7138;49.246;9.100;2024-02-26T09:14:00;97243.22;;;8.65;71.61
14120;BME280;7138;49.246;9.100;2024-02-26T09:16:26;97245.69;;;8.72;71.70
14120;BME280;7138;49.246;9.100;2024-02-26T09:18:52;97244.56;;;8.78;71.33
14120;BME280;7138;49.246;9.100;2024-02-26T09:21:17;97244.03;;;8.76;71.27
14120;BME280;7138;49.246;9.100;2024-02-26T09:23:49;97242.09;;;8.82;71.69
14120;BME280;7138;49.246;9.100;2024-02-26T09:26:15;97251.41;;;8.86;71.59
14120;BME280;7138;49.246;9.100;2024-02-26T09:28:42;97244.59;;;8.83;71.15
14120;BME280;7138;49.246;9.100;2024-02-26T09:31:08;97237.72;;;8.91;71.47
14120;BME280;7138;49.246;9.100;2024-02-26T09:33:35;97253.81;;;9.03;71.68
14120;BME280;7138;49.246;9.100;2024-02-26T09:36:01;97253.53;;;9.09;71.14
14120;BME280;7138;49.246;9.100;2024-02-26T09:38:27;97246.16;;;9.10;71.03
14120;BME280;7138;49.246;9.100;2024-02-26T09:40:53;97249.72;;;9.15;71.20
14120;BME280;7138;49.246;9.100;2024-02-26T09:43:22;97244.22;;;9.20;71.33
14120;BME280;7138;49.246;9.100;2024-02-26T09:45:54;97251.56;;;9.30;71.54
14120;BME280;7138;49.246;9.100;2024-02-26T09:48:22;97254.56;;;9.39;71.81
14120;BME280;7138;49.246;9.100;2024-02-26T09:50:49;97259.97;;;9.54;71.03
14120;BME280;7138;49.246;9.100;2024-02-26T09:53:14;97266.47;;;9.63;70.85
14120;BME280;7138;49.246;9.100;2024-02-26T09:55:42;97260.72;;;9.70;69.86
14120;BME280;7138;49.246;9.100;2024-02-26T09:58:10;97253.84;;;9.77;69.86
14120;BME280;7138;49.246;9.100;2024-02-26T10:00:37;97259.00;;;9.89;70.36
14120;BME280;7138;49.246;9.100;2024-02-26T10:03:09;97268.50;;;10.02;69.52
14120;BME280;7138;49.246;9.100;2024-02-26T10:05:39;97258.59;;;10.11;69.76
14120;BME280;7138;49.246;9.100;2024-02-26T10:08:09;97259.91;;;10.19;69.24
14120;BME280;7138;49.246;9.100;2024-02-26T10:10:37;97257.66;;;10.31;69.32
14120;BME280;7138;49.246;9.100;2024-02-26T10:13:05;97256.53;;;10.42;69.34
14120;BME280;7138;49.246;9.100;2024-02-26T10:15:35;97252.06;;;10.51;69.30
14120;BME280;7138;49.246;9.100;2024-02-26T10:18:05;97261.81;;;10.62;67.73
14120;BME280;7138;49.246;9.100;2024-02-26T10:20:32;97260.44;;;10.65;67.08
14120;BME280;7138;49.246;9.100;2024-02-26T10:22:58;97258.53;;;10.65;67.46
14120;BME280;7138;49.246;9.100;2024-02-26T10:25:24;97259.59;;;10.69;66.92
14120;BME280;7138;49.246;9.100;2024-02-26T10:27:50;97265.28;;;10.73;67.02
14120;BME280;7138;49.246;9.100;2024-02-26T10:30:20;97260.53;;;10.84;66.94
14120;BME280;7138;49.246;9.100;2024-02-26T10:32:48;97261.84;;;10.91;67.50
14120;BME280;7138;49.246;9.100;2024-02-26T10:35:16;97262.53;;;11.07;67.07
14120;BME280;7138;49.246;9.100;2024-02-26T10:37:44;97267.09;;;11.17;66.64
14120;BME280;7138;49.246;9.100;2024-02-26T10:40:11;97264.31;;;11.22;67.05
14120;BME280;7138;49.246;9.100;2024-02-26T10:42:37;97271.59;;;11.32;67.82
14120;BME280;7138;49.246;9.100;2024-02-26T10:45:05;97270.16;;;11.39;67.17
14120;BME280;7138;49.246;9.100;2024-02-26T10:47:31;97273.06;;;11.48;66.05
14120;BME280;7138;49.246;9.100;2024-02-26T10:49:59;97272.50;;;11.51;65.04
14120;BME280;7138;49.246;9.100;2024-02-26T10:52:30;97272.38;;;11.61;65.96
14120;BME280;7138;49.246;9.100;2024-02-26T10:55:00;97277.75;;;11.71;65.23
14120;BME280;7138;49.246;9.100;2024-02-26T10:57:31;97275.44;;;11.78;64.88
14120;BME280;7138;49.246;9.100;2024-02-26T11:00:00;97275.94;;;11.85;64.11
14120;BME280;7138;49.246;9.100;2024-02-26T11:02:27;97277.06;;;11.84;64.12
14120;BME280;7138;49.246;9.100;2024-02-26T11:04:54;97268.63;;;11.81;64.12
14120;BME280;7138;49.246;9.100;2024-02-26T11:07:20;97261.94;;;11.87;64.69
14120;BME280;7138;49.246;9.100;2024-02-26T11:09:48;97268.72;;;11.95;64.37
14120;BME280;7138;49.246;9.100;2024-02-26T11:12:18;97265.00;;;12.04;65.02
14120;BME280;7138;49.246;9.100;2024-02-26T11:14:47;97260.56;;;12.08;65.17
14120;BME280;7138;49.246;9.100;2024-02-26T11:17:15;97258.94;;;12.26;65.59
14120;BME280;7138;49.246;9.100;2024-02-26T11:19:44;97266.59;;;12.48;64.75
14120;BME280;7138;49.246;9.100;2024-02-26T11:22:13;97265.16;;;12.69;63.28
14120;BME280;7138;49.246;9.100;2024-02-26T11:24:39;97270.47;;;12.80;63.45
14120;BME280;7138;49.246;9.100;2024-02-26T11:27:11;97272.38;;;12.98;63.23
14120;BME280;7138;49.246;9.100;2024-02-26T11:29:43;97259.34;;;13.03;62.50
14120;BME280;7138;49.246;9.100;2024-02-26T11:32:11;97256.81;;;13.07;61.08
14120;BME280;7138;49.246;9.100;2024-02-26T11:34:38;97267.47;;;13.27;61.19
14120;BME280;7138;49.246;9.100;2024-02-26T11:37:11;97272.09;;;13.32;61.15
14120;BME280;7138;49.246;9.100;2024-02-26T11:39:39;97273.00;;;13.41;60.73
14120;BME280;7138;49.246;9.100;2024-02-26T11:42:06;97268.03;;;13.57;62.05
14120;BME280;7138;49.246;9.100;2024-02-26T11:44:35;97259.69;;;13.76;61.15
14120;BME280;7138;49.246;9.100;2024-02-26T11:47:11;97259.56;;;13.95;59.84
14120;BME280;7138;49.246;9.100;2024-02-26T11:49:37;97263.31;;;14.12;60.55
14120;BME280;7138;49.246;9.100;2024-02-26T11:52:07;97260.53;;;14.26;56.96
14120;BME280;7138;49.246;9.100;2024-02-26T11:54:44;97255.72;;;14.32;57.05
14120;BME280;7138;49.246;9.100;2024-02-26T11:57:27;97268.66;;;14.45;58.00
14120;BME280;7138;49.246;9.100;2024-02-26T12:00:12;97261.00;;;14.42;57.15
14120;BME280;7138;49.246;9.100;2024-02-26T12:02:43;97261.94;;;14.51;57.82
14120;BME280;7138;49.246;9.100;2024-02-26T12:05:12;97263.16;;;14.45;57.45
14120;BME280;7138;49.246;9.100;2024-02-26T12:07:41;97265.91;;;14.45;57.39
14120;BME280;7138;49.246;9.100;2024-02-26T12:10:17;97276.81;;;14.50;56.52
14120;BME280;7138;49.246;9.100;2024-02-26T12:12:46;97264.75;;;14.60;57.51
14120;BME280;7138;49.246;9.100;2024-02-26T12:15:15;97264.03;;;14.68;56.63
14120;BME280;7138;49.246;9.100;2024-02-26T12:17:41;97271.91;;;14.83;57.25
14120;BME280;7138;49.246;9.100;2024-02-26T12:20:11;97270.34;;;14.91;56.68
14120;BME280;7138;49.246;9.100;2024-02-26T12:22:40;97269.47;;;15.04;54.47
14120;BME280;7138;49.246;9.100;2024-02-26T12:25:08;97268.78;;;15.21;55.11
14120;BME280;7138;49.246;9.100;2024-02-26T12:27:35;97273.88;;;15.36;54.79
14120;BME280;7138;49.246;9.100;2024-02-26T12:30:01;97278.78;;;15.48;53.40
14120;BME280;7138;49.246;9.100;2024-02-26T12:32:28;97277.38;;;15.59;53.95
14120;BME280;7138;49.246;9.100;2024-02-26T12:34:54;97277.59;;;15.62;52.82
14120;BME280;7138;49.246;9.100;2024-02-26T12:37:20;97272.75;;;15.68;52.36
14120;BME280;7138;49.246;9.100;2024-02-26T12:39:46;97281.41;;;15.75;52.56
14120;BME280;7138;49.246;9.100;2024-02-26T12:42:12;97280.72;;;15.70;50.86
14120;BME280;7138;49.246;9.100;2024-02-26T12:44:40;97282.00;;;15.72;51.83
14120;BME280;7138;49.246;9.100;2024-02-26T12:47:05;97282.22;;;15.76;52.28
14120;BME280;7138;49.246;9.100;2024-02-26T12:49:33;97279.50;;;15.93;51.36
14120;BME280;7138;49.246;9.100;2024-02-26T12:51:59;97282.25;;;15.93;49.86
14120;BME280;7138;49.246;9.100;2024-02-26T12:54:28;97286.63;;;15.94;51.32
14120;BME280;7138;49.246;9.100;2024-02-26T12:56:55;97294.97;;;16.03;51.34
14120;BME280;7138;49.246;9.100;2024-02-26T12:59:21;97299.03;;;16.14;49.46
14120;BME280;7138;49.246;9.100;2024-02-26T13:01:47;97294.03;;;16.25;49.50
14120;BME280;7138;49.246;9.100;2024-02-26T13:04:13;97295.38;;;16.36;48.61
14120;BME280;7138;49.246;9.100;2024-02-26T13:06:41;97288.72;;;16.45;47.60
14120;BME280;7138;49.246;9.100;2024-02-26T13:09:07;97286.44;;;16.56;50.20
14120;BME280;7138;49.246;9.100;2024-02-26T13:11:34;97284.19;;;16.67;49.22
14120;BME280;7138;49.246;9.100;2024-02-26T13:14:00;97288.13;;;16.74;48.72
14120;BME280;7138;49.246;9.100;2024-02-26T13:16:26;97293.19;;;16.72;47.47